Collins Landing, New York
Current Conditions -  °F | °C
As of 5:56 AM on Saturday 25 Oct 2014 (Local Time) from KGTB Reporting Station
Overcast Overcast  
Wind Chill: 44°   Ceiling: 6000
Heat Index: 47°   Visibility: 10mi
Dew Point: 42°   Wind: 6mph
Humidity: 83%   Direction: 250°WSW
Pressure: 29.81"   Gusts: NA
Location:  44.3057°N, 75.9374°W
Report Text: KGTB 250956Z 25005KT 10SM OVC060 08/05 A2981 RMK SLP099 T00820055
Loading
Personal Weather Stations






























Interactive Weather Map
Tropical Storm Tracking
New forecast layout! Learn more

10-Day Weather Forecast

Advertisements
Track Severe Weather on mobile